createdAt,value
2019-03-30T00:00:30.387Z,18.00
2019-03-30T00:02:58.368Z,17.95
2019-03-30T00:05:26.618Z,17.95
2019-03-30T00:07:54.623Z,17.55
2019-03-30T00:10:23.015Z,17.80
2019-03-30T00:12:50.982Z,17.78
2019-03-30T00:15:19.054Z,17.81
2019-03-30T00:17:47.212Z,17.77
2019-03-30T00:20:15.179Z,17.71
2019-03-30T00:22:43.194Z,17.77
2019-03-30T00:25:11.207Z,17.78
2019-03-30T00:27:39.194Z,17.69
2019-03-30T00:30:07.190Z,17.36
2019-03-30T00:32:35.199Z,17.14
2019-03-30T00:35:04.746Z,17.16
2019-03-30T00:37:32.798Z,17.40
2019-03-30T00:40:03.869Z,17.44
2019-03-30T00:42:31.854Z,17.44
2019-03-30T00:44:59.931Z,17.52
2019-03-30T00:47:27.935Z,17.37
2019-03-30T00:49:55.922Z,17.29
2019-03-30T00:52:23.919Z,17.20
2019-03-30T00:54:51.895Z,17.26
2019-03-30T00:57:19.894Z,17.12
2019-03-30T00:59:47.887Z,17.13
2019-03-30T01:02:15.862Z,17.17
2019-03-30T01:04:43.886Z,17.14
2019-03-30T01:07:11.913Z,17.32
2019-03-30T01:09:39.961Z,17.34
2019-03-30T01:12:08.010Z,17.19
2019-03-30T01:14:36.002Z,17.11
2019-03-30T01:17:05.882Z,16.99
2019-03-30T01:19:38.539Z,16.95
2019-03-30T01:22:06.608Z,16.98
2019-03-30T01:24:34.591Z,17.03
2019-03-30T01:27:02.572Z,17.06
2019-03-30T01:29:30.614Z,16.93
2019-03-30T01:31:58.680Z,16.83
2019-03-30T01:34:26.705Z,16.84
2019-03-30T01:36:54.777Z,16.87
2019-03-30T01:39:22.771Z,16.90
2019-03-30T01:41:50.776Z,16.75
2019-03-30T01:44:18.798Z,16.70
2019-03-30T01:46:46.755Z,16.76
2019-03-30T01:49:14.727Z,16.80
2019-03-30T01:51:42.734Z,16.82
2019-03-30T01:54:10.829Z,16.77
2019-03-30T01:56:40.063Z,16.70
2019-03-30T01:59:13.840Z,16.69
2019-03-30T02:01:41.855Z,16.80
2019-03-30T02:04:09.924Z,16.85
2019-03-30T02:06:37.903Z,16.80
2019-03-30T02:09:06.188Z,16.85
2019-03-30T02:11:34.206Z,16.80
2019-03-30T02:14:02.175Z,16.86
2019-03-30T02:16:30.150Z,16.84
2019-03-30T02:18:58.206Z,16.59
2019-03-30T02:21:26.259Z,16.73
2019-03-30T02:23:54.279Z,16.65
2019-03-30T02:26:22.287Z,16.62
2019-03-30T02:28:50.274Z,16.58
2019-03-30T02:31:18.278Z,16.48
2019-03-30T02:33:46.295Z,16.53
2019-03-30T02:36:14.303Z,16.52
2019-03-30T02:38:51.854Z,16.38
2019-03-30T02:41:19.863Z,16.29
2019-03-30T02:43:47.847Z,16.27
2019-03-30T02:46:15.875Z,16.20
2019-03-30T02:48:43.967Z,16.12
2019-03-30T02:51:11.982Z,16.14
2019-03-30T02:53:39.975Z,15.80
2019-03-30T02:56:07.964Z,16.22
2019-03-30T02:58:36.034Z,16.22
2019-03-30T03:01:04.020Z,16.32
2019-03-30T03:03:32.246Z,16.42
2019-03-30T03:06:00.328Z,16.40
2019-03-30T03:08:28.311Z,16.29
2019-03-30T03:10:56.536Z,16.29
2019-03-30T03:13:24.528Z,16.40
2019-03-30T03:15:57.512Z,16.49
2019-03-30T03:18:27.944Z,16.48
2019-03-30T03:21:07.412Z,16.46
2019-03-30T03:23:25.675Z,16.46
2019-03-30T03:25:53.660Z,16.25
2019-03-30T03:28:21.685Z,16.12
2019-03-30T03:30:49.731Z,16.09
2019-03-30T03:33:17.729Z,16.12
2019-03-30T03:35:45.781Z,16.19
2019-03-30T03:38:13.785Z,16.09
2019-03-30T03:40:41.775Z,16.01
2019-03-30T03:43:09.759Z,15.97
2019-03-30T03:45:37.731Z,15.97
2019-03-30T03:48:05.733Z,16.11
2019-03-30T03:50:35.882Z,16.15
2019-03-30T03:53:07.579Z,16.03
2019-03-30T03:55:36.891Z,16.01
2019-03-30T03:58:05.561Z,15.93
2019-03-30T04:00:33.553Z,15.91
2019-03-30T04:03:01.519Z,15.83
2019-03-30T04:05:29.507Z,15.91
2019-03-30T04:07:57.501Z,15.86
2019-03-30T04:10:25.611Z,15.75
2019-03-30T04:12:53.570Z,15.71
2019-03-30T04:15:24.647Z,15.78
2019-03-30T04:17:52.637Z,15.86
2019-03-30T04:20:22.878Z,15.83
2019-03-30T04:22:50.880Z,15.84
2019-03-30T04:25:19.225Z,15.86
2019-03-30T04:27:47.248Z,15.52
2019-03-30T04:30:17.229Z,15.72
2019-03-30T04:32:44.943Z,15.65
2019-03-30T04:35:12.951Z,15.66
2019-03-30T04:37:40.929Z,15.36
2019-03-30T04:40:08.920Z,15.58
2019-03-30T04:42:36.899Z,15.53
2019-03-30T04:45:04.894Z,15.56
2019-03-30T04:47:32.966Z,15.55
2019-03-30T04:50:00.936Z,15.59
2019-03-30T04:52:28.930Z,15.42
2019-03-30T04:54:56.903Z,15.65
2019-03-30T04:57:24.899Z,15.72
2019-03-30T04:59:52.882Z,15.64
2019-03-30T05:02:20.870Z,15.56
2019-03-30T05:04:48.877Z,15.46
2019-03-30T05:07:16.971Z,15.41
2019-03-30T05:09:44.967Z,15.43
2019-03-30T05:12:14.613Z,15.41
2019-03-30T05:14:42.607Z,15.44
2019-03-30T05:17:10.626Z,15.37
2019-03-30T05:19:38.636Z,15.44
2019-03-30T05:22:12.934Z,15.28
2019-03-30T05:24:36.362Z,15.27
2019-03-30T05:27:04.402Z,15.14
2019-03-30T05:29:32.412Z,15.17
2019-03-30T05:32:00.383Z,15.33
2019-03-30T05:34:28.392Z,15.34
2019-03-30T05:36:56.395Z,15.26
2019-03-30T05:39:24.394Z,15.31
2019-03-30T05:41:52.453Z,15.30
2019-03-30T05:44:20.432Z,15.28
2019-03-30T05:46:48.782Z,14.86
2019-03-30T05:49:16.998Z,15.31
2019-03-30T05:51:44.980Z,15.19
2019-03-30T05:54:14.459Z,15.16
2019-03-30T05:56:45.360Z,15.18
2019-03-30T05:59:13.314Z,15.21
2019-03-30T06:01:41.302Z,15.19
2019-03-30T06:04:09.795Z,15.22
2019-03-30T06:06:37.793Z,15.29
2019-03-30T06:09:06.546Z,15.54
2019-03-30T06:11:34.530Z,15.80
2019-03-30T06:14:02.506Z,16.03
2019-03-30T06:16:30.490Z,16.03
2019-03-30T06:18:58.492Z,15.97
2019-03-30T06:21:26.474Z,16.03
2019-03-30T06:23:54.478Z,16.06
2019-03-30T06:26:22.454Z,15.96
2019-03-30T06:28:50.430Z,16.04
2019-03-30T06:31:19.591Z,16.03
2019-03-30T06:33:50.112Z,16.01
2019-03-30T06:36:18.362Z,16.12
2019-03-30T06:38:46.386Z,16.20
2019-03-30T06:41:14.350Z,16.20
2019-03-30T06:43:42.714Z,16.04
2019-03-30T06:46:10.729Z,16.11
2019-03-30T06:48:38.980Z,16.13
2019-03-30T06:51:06.997Z,16.32
2019-03-30T06:53:34.980Z,16.17
2019-03-30T06:56:02.961Z,16.19
2019-03-30T06:58:30.938Z,16.17
2019-03-30T07:00:58.921Z,16.36
2019-03-30T07:03:26.934Z,16.27
2019-03-30T07:05:54.951Z,16.26
2019-03-30T07:08:23.293Z,16.32
2019-03-30T07:11:20.421Z,16.27
2019-03-30T07:13:38.979Z,16.32
2019-03-30T07:16:06.968Z,16.36
2019-03-30T07:18:35.062Z,16.29
2019-03-30T07:21:03.147Z,16.43
2019-03-30T07:23:31.219Z,16.37
2019-03-30T07:25:59.219Z,16.37
2019-03-30T07:28:27.247Z,16.42
2019-03-30T07:30:55.244Z,16.39
2019-03-30T07:33:23.255Z,16.31
2019-03-30T07:35:51.238Z,16.39
2019-03-30T07:38:19.231Z,16.46
2019-03-30T07:40:47.248Z,15.84
2019-03-30T07:43:17.411Z,16.49
2019-03-30T07:45:45.456Z,15.89
2019-03-30T07:48:13.537Z,16.39
2019-03-30T07:50:41.766Z,16.35
2019-03-30T07:53:09.762Z,16.56
2019-03-30T07:55:37.878Z,16.60
2019-03-30T07:58:05.874Z,16.63
2019-03-30T08:00:33.942Z,16.63
2019-03-30T08:03:01.918Z,16.66
2019-03-30T08:05:29.993Z,16.80
2019-03-30T08:07:57.966Z,16.73
2019-03-30T08:10:25.950Z,16.88
2019-03-30T08:12:53.959Z,16.86
2019-03-30T08:15:21.949Z,16.47
2019-03-30T08:17:49.948Z,16.84
2019-03-30T08:20:18.016Z,16.93
2019-03-30T08:22:48.413Z,16.96
2019-03-30T08:25:20.176Z,16.95
2019-03-30T08:27:48.182Z,17.00
2019-03-30T08:30:16.175Z,17.06
2019-03-30T08:32:44.216Z,17.22
2019-03-30T08:35:12.198Z,17.48
2019-03-30T08:37:40.182Z,17.54
2019-03-30T08:40:08.216Z,17.46
2019-03-30T08:42:36.291Z,17.67
2019-03-30T08:45:04.842Z,17.56
2019-03-30T08:47:32.855Z,17.56
2019-03-30T08:50:01.224Z,17.51
2019-03-30T08:52:29.654Z,17.58
2019-03-30T08:55:19.238Z,17.58
2019-03-30T08:57:47.255Z,17.56
2019-03-30T09:00:16.890Z,17.00
2019-03-30T09:02:44.858Z,17.52
2019-03-30T09:05:12.822Z,17.55
2019-03-30T09:07:40.847Z,17.56
2019-03-30T09:10:08.884Z,17.64
2019-03-30T09:12:37.047Z,17.66
2019-03-30T09:15:05.414Z,17.39
2019-03-30T09:17:37.047Z,17.75
2019-03-30T09:20:03.497Z,17.79
2019-03-30T09:22:31.490Z,18.07
2019-03-30T09:24:59.758Z,17.96
2019-03-30T09:27:27.792Z,18.05
2019-03-30T09:29:58.084Z,17.67
2019-03-30T09:32:33.887Z,17.28
2019-03-30T09:35:02.936Z,18.07
2019-03-30T09:37:30.956Z,18.34
2019-03-30T09:39:58.998Z,18.11
2019-03-30T09:42:26.987Z,18.09
2019-03-30T09:44:54.969Z,18.16
2019-03-30T09:47:22.943Z,18.13
2019-03-30T09:49:50.961Z,18.03
2019-03-30T09:52:18.933Z,17.77
2019-03-30T09:54:47.473Z,18.22
2019-03-30T10:00:37.694Z,18.30
2019-03-30T10:03:06.298Z,18.37
2019-03-30T10:05:34.405Z,18.42
2019-03-30T10:08:02.570Z,18.47
2019-03-30T10:10:30.712Z,18.47
2019-03-30T10:12:58.718Z,18.47
2019-03-30T10:15:26.731Z,18.46
2019-03-30T10:18:10.725Z,18.42
2019-03-30T10:20:38.711Z,18.43
2019-03-30T10:23:06.867Z,18.62
2019-03-30T10:25:34.885Z,18.65
2019-03-30T10:28:02.882Z,18.66
2019-03-30T10:30:30.887Z,18.63
2019-03-30T10:32:59.216Z,18.77
2019-03-30T10:35:27.539Z,18.81
2019-03-30T10:37:55.680Z,18.76
2019-03-30T10:40:23.985Z,18.79
2019-03-30T10:42:52.198Z,18.89
2019-03-30T10:45:20.494Z,18.90
2019-03-30T10:47:50.005Z,18.86
2019-03-30T10:50:29.041Z,18.94
2019-03-30T10:52:57.292Z,18.95
2019-03-30T10:55:25.521Z,18.97
2019-03-30T10:57:53.813Z,19.07
2019-03-30T11:00:37.796Z,18.80
2019-03-30T11:03:06.250Z,19.13
2019-03-30T11:05:34.269Z,18.98
2019-03-30T11:08:02.241Z,19.25
2019-03-30T11:10:30.262Z,19.26
2019-03-30T11:12:58.270Z,19.18
2019-03-30T11:15:34.317Z,19.23
2019-03-30T11:18:02.665Z,19.30
2019-03-30T11:20:30.684Z,18.97
2019-03-30T11:22:58.654Z,19.42
2019-03-30T11:25:26.647Z,19.51
2019-03-30T11:27:54.666Z,19.54
2019-03-30T11:30:22.766Z,19.50
2019-03-30T11:32:50.783Z,19.53
2019-03-30T11:35:19.127Z,19.56
2019-03-30T11:37:47.142Z,19.23
2019-03-30T11:40:15.173Z,19.30
2019-03-30T11:42:43.185Z,19.75
2019-03-30T11:45:11.191Z,19.74
2019-03-30T11:47:39.166Z,19.71
2019-03-30T11:50:07.235Z,19.50
2019-03-30T11:52:37.401Z,19.82
2019-03-30T11:55:21.039Z,19.30
2019-03-30T11:57:37.682Z,19.88
2019-03-30T12:00:06.095Z,19.84
2019-03-30T12:02:36.186Z,19.91
2019-03-30T12:05:04.600Z,20.02
2019-03-30T12:07:33.756Z,20.00
2019-03-30T12:10:02.957Z,19.57
2019-03-30T12:12:31.079Z,19.98
2019-03-30T12:14:59.062Z,19.53
2019-03-30T12:17:27.130Z,20.09
2019-03-30T12:19:55.252Z,20.04
2019-03-30T12:22:23.399Z,20.08
2019-03-30T12:24:51.412Z,20.02
2019-03-30T12:27:19.411Z,20.14
2019-03-30T12:29:50.926Z,20.13
2019-03-30T12:32:19.533Z,19.75
2019-03-30T12:34:47.663Z,19.90
2019-03-30T12:37:15.699Z,20.27
2019-03-30T12:39:43.691Z,20.18
2019-03-30T12:42:11.681Z,20.22
2019-03-30T12:44:39.756Z,20.29
2019-03-30T12:47:10.269Z,20.29
2019-03-30T12:49:37.475Z,20.33
2019-03-30T12:52:05.487Z,20.34
2019-03-30T12:54:33.489Z,20.39
2019-03-30T12:57:01.470Z,20.38
2019-03-30T12:59:29.483Z,20.36
2019-03-30T13:01:57.471Z,20.42
2019-03-30T13:04:27.572Z,20.40
2019-03-30T13:07:03.079Z,20.40
2019-03-30T13:09:34.621Z,19.85
2019-03-30T13:12:01.388Z,20.45
2019-03-30T13:14:29.450Z,20.48
2019-03-30T13:16:57.638Z,20.45
2019-03-30T13:19:25.949Z,20.51
2019-03-30T13:21:54.011Z,20.44
2019-03-30T13:24:22.306Z,20.52
2019-03-30T13:26:50.658Z,20.45
2019-03-30T13:29:18.644Z,20.72
2019-03-30T13:31:46.706Z,20.71
2019-03-30T13:34:14.751Z,20.69
2019-03-30T13:36:43.742Z,20.28
2019-03-30T13:39:11.761Z,20.70
2019-03-30T13:41:40.853Z,20.63
2019-03-30T13:44:09.276Z,20.66
2019-03-30T13:46:37.267Z,20.67
2019-03-30T13:49:05.322Z,20.69
2019-03-30T13:51:33.418Z,20.77
2019-03-30T13:54:01.601Z,20.71
2019-03-30T13:56:29.609Z,20.70
2019-03-30T13:58:57.689Z,20.70
2019-03-30T14:01:25.677Z,20.74
2019-03-30T14:03:53.909Z,20.86
2019-03-30T14:06:21.901Z,20.85
2019-03-30T14:08:49.928Z,20.87
2019-03-30T14:11:17.934Z,20.90
2019-03-30T14:13:45.947Z,20.88
2019-03-30T14:16:13.938Z,20.92
2019-03-30T14:18:41.987Z,20.89
2019-03-30T14:21:10.146Z,21.06
2019-03-30T14:23:44.038Z,21.13
2019-03-30T14:29:34.285Z,21.15
2019-03-30T14:32:02.390Z,20.67
2019-03-30T14:34:32.592Z,21.04
2019-03-30T14:37:00.632Z,20.88
2019-03-30T14:39:28.657Z,21.09
2019-03-30T14:41:56.662Z,21.14
2019-03-30T14:44:24.701Z,21.13
2019-03-30T14:46:52.690Z,21.17
2019-03-30T14:49:20.687Z,21.26
2019-03-30T14:51:48.694Z,21.11
2019-03-30T14:54:16.694Z,21.15
2019-03-30T14:56:46.135Z,20.94
2019-03-30T14:59:14.675Z,21.27
2019-03-30T15:01:42.711Z,21.29
2019-03-30T15:04:10.836Z,21.32
2019-03-30T15:06:39.069Z,21.28
2019-03-30T15:09:26.018Z,21.34
2019-03-30T15:11:41.750Z,21.37
2019-03-30T15:14:09.746Z,21.39
2019-03-30T15:16:37.814Z,21.34
2019-03-30T15:19:06.503Z,21.02
2019-03-30T15:21:34.609Z,21.41
2019-03-30T15:24:02.672Z,21.39
2019-03-30T15:26:30.727Z,21.32
2019-03-30T15:28:58.872Z,21.32
2019-03-30T15:31:27.104Z,21.26
2019-03-30T15:33:55.132Z,21.29
2019-03-30T15:36:23.222Z,21.27
2019-03-30T15:38:51.192Z,21.33
2019-03-30T15:41:19.192Z,21.24
2019-03-30T15:43:47.238Z,21.27
2019-03-30T15:46:15.207Z,21.28
2019-03-30T15:48:43.606Z,21.27
2019-03-30T15:51:13.339Z,21.35
2019-03-30T15:53:41.358Z,21.42
2019-03-30T15:56:09.458Z,21.40
2019-03-30T15:58:37.491Z,21.32
2019-03-30T16:01:05.559Z,21.28
2019-03-30T16:03:33.670Z,21.38
2019-03-30T16:06:01.757Z,21.37
2019-03-30T16:08:29.846Z,21.41
2019-03-30T16:10:58.966Z,21.36
2019-03-30T16:13:26.943Z,21.32
2019-03-30T16:15:55.036Z,21.32
2019-03-30T16:18:23.138Z,21.32
2019-03-30T16:20:51.162Z,21.32
2019-03-30T16:23:19.220Z,21.34
2019-03-30T16:25:47.320Z,21.35
2019-03-30T16:28:18.127Z,21.36
2019-03-30T16:30:49.615Z,21.32
2019-03-30T16:33:17.657Z,21.28
2019-03-30T16:35:45.763Z,21.16
2019-03-30T16:38:13.812Z,21.22
2019-03-30T16:40:44.943Z,21.24
2019-03-30T16:43:19.130Z,21.29
2019-03-30T16:45:47.162Z,21.00
2019-03-30T16:48:15.140Z,21.36
2019-03-30T16:50:43.139Z,21.35
2019-03-30T16:53:11.135Z,21.33
2019-03-30T16:55:39.934Z,21.31
2019-03-30T16:58:07.972Z,21.32
2019-03-30T17:00:55.586Z,21.25
2019-03-30T17:03:08.523Z,21.24
2019-03-30T17:05:36.652Z,21.32
2019-03-30T17:08:04.655Z,21.32
2019-03-30T17:10:32.654Z,21.29
2019-03-30T17:13:00.801Z,21.33
2019-03-30T17:15:28.783Z,21.35
2019-03-30T17:17:56.787Z,21.29
2019-03-30T17:20:24.811Z,21.32
2019-03-30T17:22:52.840Z,21.19
2019-03-30T17:25:20.847Z,21.22
2019-03-30T17:27:58.281Z,21.15
2019-03-30T17:30:18.579Z,21.19
2019-03-30T17:32:47.010Z,21.22
2019-03-30T17:35:15.059Z,21.17
2019-03-30T17:37:43.176Z,21.13
2019-03-30T17:40:16.171Z,21.15
2019-03-30T17:42:44.146Z,21.03
2019-03-30T17:45:12.150Z,20.92
2019-03-30T17:47:40.174Z,20.57
2019-03-30T17:50:08.269Z,20.44
2019-03-30T17:52:36.362Z,20.40
2019-03-30T17:55:04.501Z,20.54
2019-03-30T17:57:32.478Z,20.31
2019-03-30T18:00:00.486Z,20.05
2019-03-30T18:02:28.823Z,20.19
2019-03-30T18:04:56.827Z,20.05
2019-03-30T18:07:24.871Z,20.29
2019-03-30T18:09:52.883Z,20.23
2019-03-30T18:12:20.871Z,20.41
2019-03-30T18:14:48.859Z,19.89
2019-03-30T18:17:25.783Z,20.24
2019-03-30T18:19:53.866Z,20.28
2019-03-30T18:22:21.827Z,20.26
2019-03-30T18:24:49.822Z,20.13
2019-03-30T18:27:17.819Z,20.10
2019-03-30T18:29:45.808Z,19.99
2019-03-30T18:32:13.811Z,20.15
2019-03-30T18:34:41.831Z,20.38
2019-03-30T18:37:09.870Z,19.56
2019-03-30T18:39:37.871Z,20.28
2019-03-30T18:42:06.744Z,19.98
2019-03-30T18:44:35.402Z,19.97
2019-03-30T18:47:03.823Z,20.04
2019-03-30T18:49:33.718Z,20.25
2019-03-30T18:52:01.781Z,20.04
2019-03-30T18:54:36.796Z,20.02
2019-03-30T18:57:05.913Z,20.08
2019-03-30T18:59:34.371Z,20.03
2019-03-30T19:02:03.137Z,19.90
2019-03-30T19:04:31.214Z,19.96
2019-03-30T19:07:02.095Z,20.01
2019-03-30T19:09:30.118Z,19.93
2019-03-30T19:11:58.194Z,19.66
2019-03-30T19:14:26.207Z,19.89
2019-03-30T19:16:54.443Z,19.84
2019-03-30T19:19:22.426Z,19.53
2019-03-30T19:21:50.418Z,19.90
2019-03-30T19:24:18.437Z,19.69
2019-03-30T19:26:46.648Z,19.71
2019-03-30T19:29:18.218Z,19.26
2019-03-30T19:31:51.088Z,19.74
2019-03-30T19:34:20.226Z,19.74
2019-03-30T19:36:48.211Z,19.67
2019-03-30T19:39:16.628Z,19.64
2019-03-30T19:41:44.609Z,19.12
2019-03-30T19:44:12.680Z,19.47
2019-03-30T19:46:40.697Z,19.06
2019-03-30T19:49:08.707Z,19.25
2019-03-30T19:51:36.751Z,18.90
2019-03-30T19:54:04.735Z,19.16
2019-03-30T19:56:32.754Z,19.16
2019-03-30T19:59:10.635Z,19.40
2019-03-30T20:01:30.617Z,19.35
2019-03-30T20:03:58.606Z,19.57
2019-03-30T20:06:29.473Z,19.76
2019-03-30T20:09:00.180Z,19.58
2019-03-30T20:11:28.348Z,19.37
2019-03-30T20:13:56.369Z,19.24
2019-03-30T20:16:24.385Z,19.16
2019-03-30T20:19:05.376Z,19.49
2019-03-30T20:21:22.331Z,19.24
2019-03-30T20:23:50.335Z,19.24
2019-03-30T20:26:18.327Z,19.12
2019-03-30T20:28:46.382Z,18.68
2019-03-30T20:31:14.369Z,18.90
2019-03-30T20:33:42.430Z,18.32
2019-03-30T20:36:10.422Z,18.95
2019-03-30T20:38:38.459Z,19.08
2019-03-30T20:41:06.494Z,19.34
2019-03-30T20:43:42.941Z,19.35
2019-03-30T20:46:10.990Z,19.03
2019-03-30T20:48:38.971Z,19.16
2019-03-30T20:51:07.290Z,19.25
2019-03-30T20:53:35.266Z,18.95
2019-03-30T20:56:03.330Z,18.72
2019-03-30T20:58:31.320Z,18.67
2019-03-30T21:00:59.315Z,18.94
2019-03-30T21:03:27.297Z,18.52
2019-03-30T21:05:55.290Z,19.00
2019-03-30T21:08:23.294Z,18.96
2019-03-30T21:10:51.275Z,19.01
2019-03-30T21:13:19.257Z,18.81
2019-03-30T21:15:47.230Z,18.94
2019-03-30T21:18:15.259Z,18.66
2019-03-30T21:20:43.288Z,18.63
2019-03-30T21:23:19.506Z,18.75
2019-03-30T21:25:47.473Z,18.55
2019-03-30T21:28:15.531Z,18.24
2019-03-30T21:30:43.543Z,18.18
2019-03-30T21:33:11.591Z,18.46
2019-03-30T21:35:39.634Z,18.62
2019-03-30T21:38:07.623Z,18.50
2019-03-30T21:40:35.627Z,18.43
2019-03-30T21:43:03.616Z,18.16
2019-03-30T21:45:31.594Z,17.87
2019-03-30T21:47:59.586Z,17.29
2019-03-30T21:50:27.578Z,17.27
2019-03-30T21:52:55.616Z,18.07
2019-03-30T21:55:26.390Z,18.08
2019-03-30T21:57:54.391Z,18.34
2019-03-30T22:00:34.999Z,18.16
2019-03-30T22:03:03.034Z,18.29
2019-03-30T22:05:31.013Z,18.26
2019-03-30T22:07:58.998Z,18.69
2019-03-30T22:10:27.515Z,18.68
2019-03-30T22:12:55.550Z,18.51
2019-03-30T22:15:26.483Z,18.02
2019-03-30T22:17:54.498Z,17.91
2019-03-30T22:20:22.515Z,17.93
2019-03-30T22:22:50.558Z,17.87
2019-03-30T22:25:18.629Z,18.20
2019-03-30T22:27:46.611Z,18.34
2019-03-30T22:30:24.538Z,17.71
2019-03-30T22:32:51.615Z,17.87
2019-03-30T22:35:19.615Z,17.90
2019-03-30T22:37:47.707Z,17.78
2019-03-30T22:40:15.681Z,17.80
2019-03-30T22:42:43.690Z,17.90
2019-03-30T22:45:11.801Z,17.98
2019-03-30T22:47:39.851Z,18.20
2019-03-30T22:50:07.924Z,17.62
2019-03-30T22:52:35.915Z,17.39
2019-03-30T22:55:04.242Z,17.18
2019-03-30T22:57:32.270Z,16.70
2019-03-30T23:00:00.634Z,17.58
2019-03-30T23:02:28.699Z,17.42
2019-03-30T23:04:56.759Z,16.76
2019-03-30T23:07:26.704Z,17.08
2019-03-30T23:09:55.838Z,16.66
2019-03-30T23:12:26.320Z,16.52
2019-03-30T23:14:54.315Z,16.98
2019-03-30T23:17:22.513Z,17.08
2019-03-30T23:19:50.546Z,17.04
2019-03-30T23:22:18.684Z,17.20
2019-03-30T23:24:46.758Z,16.91
2019-03-30T23:27:14.766Z,16.83
2019-03-30T23:29:42.831Z,17.05
2019-03-30T23:32:10.807Z,16.32
2019-03-30T23:34:38.793Z,16.44
2019-03-30T23:37:06.772Z,17.02
2019-03-30T23:39:34.783Z,16.82
2019-03-30T23:42:02.791Z,17.33
2019-03-30T23:44:30.781Z,16.79
2019-03-30T23:47:00.192Z,16.52
2019-03-30T23:49:29.378Z,16.49
2019-03-30T23:51:59.527Z,16.28
2019-03-30T23:54:27.538Z,15.95
2019-03-30T23:56:55.528Z,16.18
2019-03-30T23:59:23.490Z,16.25
